createdAt,value
2022-11-18T00:02:13.948Z,90.03
2022-11-18T00:05:19.151Z,90.93
2022-11-18T00:08:23.090Z,90.26
2022-11-18T00:11:47.433Z,89.04
2022-11-18T00:14:51.100Z,88.99
2022-11-18T00:17:54.810Z,89.78
2022-11-18T00:21:04.471Z,89.68
2022-11-18T00:24:08.672Z,90.55
2022-11-18T00:27:12.430Z,90.51
2022-11-18T00:30:16.350Z,90.69
2022-11-18T00:33:20.081Z,91.86
2022-11-18T00:36:25.291Z,91.37
2022-11-18T00:39:29.011Z,91.59
2022-11-18T00:42:50.111Z,92.00
2022-11-18T00:45:53.914Z,90.59
2022-11-18T00:48:57.725Z,90.94
2022-11-18T00:52:02.793Z,92.41
2022-11-18T00:55:07.202Z,91.79
2022-11-18T00:58:14.321Z,92.06
2022-11-18T01:01:18.342Z,91.54
2022-11-18T01:04:22.151Z,92.12
2022-11-18T01:07:27.314Z,91.45
2022-11-18T01:10:31.102Z,92.83
2022-11-18T01:13:33.780Z,95.76
2022-11-18T01:16:37.510Z,94.43
2022-11-18T01:19:41.254Z,93.84
2022-11-18T01:22:46.421Z,92.50
2022-11-18T01:25:51.297Z,93.16
2022-11-18T01:28:57.341Z,93.58
2022-11-18T01:32:23.301Z,94.07
2022-11-18T01:35:24.719Z,92.84
2022-11-18T01:38:30.191Z,92.63
2022-11-18T01:41:34.261Z,92.19
2022-11-18T01:45:05.456Z,91.80
2022-11-18T01:48:14.672Z,92.93
2022-11-18T01:51:21.380Z,93.09
2022-11-18T01:54:30.920Z,94.04
2022-11-18T01:57:34.730Z,93.71
2022-11-18T02:00:39.332Z,94.25
2022-11-18T02:03:44.971Z,96.75
2022-11-18T02:06:49.710Z,95.34
2022-11-18T02:09:58.193Z,93.70
2022-11-18T02:13:03.028Z,92.82
2022-11-18T02:16:13.801Z,92.92
2022-11-18T02:19:37.091Z,92.44
2022-11-18T02:23:16.541Z,91.81
2022-11-18T02:26:44.596Z,93.07
2022-11-18T02:29:57.107Z,94.52
2022-11-18T02:33:08.570Z,94.02
2022-11-18T02:36:20.141Z,94.43
2022-11-18T02:39:29.812Z,94.16
2022-11-18T02:42:37.221Z,94.58
2022-11-18T02:45:47.994Z,97.08
2022-11-18T02:48:53.984Z,98.06
2022-11-18T02:51:58.867Z,98.67
2022-11-18T02:55:04.284Z,96.70
2022-11-18T02:58:09.325Z,97.46
2022-11-18T03:01:21.796Z,98.83
2022-11-18T03:04:27.682Z,97.49
2022-11-18T03:07:33.568Z,97.53
2022-11-18T03:10:44.823Z,97.87
2022-11-18T03:14:03.333Z,97.38
2022-11-18T03:17:13.591Z,96.34
2022-11-18T03:20:24.070Z,97.82
2022-11-18T03:23:33.312Z,98.40
2022-11-18T03:26:40.281Z,96.88
2022-11-18T03:29:49.511Z,96.06
2022-11-18T03:33:01.522Z,96.90
2022-11-18T03:36:09.384Z,97.01
2022-11-18T03:39:17.278Z,97.16
2022-11-18T03:42:26.292Z,96.28
2022-11-18T03:45:36.632Z,98.42
2022-11-18T03:48:47.101Z,98.86
2022-11-18T03:51:55.405Z,97.02
2022-11-18T03:55:02.814Z,97.11
2022-11-18T03:58:11.811Z,95.58
2022-11-18T04:01:19.832Z,95.01
2022-11-18T04:04:27.254Z,96.80
2022-11-18T04:07:34.776Z,96.77
2022-11-18T04:10:42.451Z,96.43
2022-11-18T04:13:46.642Z,96.26
2022-11-18T04:16:54.408Z,95.95
2022-11-18T04:19:59.621Z,95.48
2022-11-18T04:23:03.263Z,94.59
2022-11-18T04:26:07.110Z,94.99
2022-11-18T04:29:10.662Z,94.16
2022-11-18T04:32:14.382Z,94.80
2022-11-18T04:35:19.571Z,95.60
2022-11-18T04:38:23.232Z,94.44
2022-11-18T04:41:46.912Z,95.19
2022-11-18T04:44:50.711Z,94.57
2022-11-18T04:47:58.855Z,94.67
2022-11-18T04:51:07.632Z,95.07
2022-11-18T04:54:12.031Z,94.85
2022-11-18T04:57:15.972Z,96.42
2022-11-18T05:00:20.112Z,95.56
2022-11-18T05:03:23.729Z,94.65
2022-11-18T05:06:29.481Z,94.78
2022-11-18T05:09:33.258Z,95.52
2022-11-18T05:12:50.652Z,95.55
2022-11-18T05:15:54.333Z,94.58
2022-11-18T05:18:58.010Z,96.73
2022-11-18T05:22:03.180Z,94.60
2022-11-18T05:25:07.981Z,95.48
2022-11-18T05:28:11.680Z,94.78
2022-11-18T05:31:17.055Z,95.72
2022-11-18T05:34:21.051Z,95.71
2022-11-18T05:37:26.171Z,94.54
2022-11-18T05:40:29.981Z,95.24
2022-11-18T05:43:33.059Z,95.44
2022-11-18T05:46:36.743Z,95.50
2022-11-18T05:49:40.421Z,95.28
2022-11-18T05:52:45.503Z,95.48
2022-11-18T05:55:55.053Z,93.62
2022-11-18T05:58:58.691Z,94.88
2022-11-18T06:02:04.453Z,95.42
2022-11-18T06:05:09.072Z,94.19
2022-11-18T06:08:17.470Z,94.04
2022-11-18T06:11:22.453Z,94.51
2022-11-18T06:14:30.333Z,95.57
2022-11-18T06:17:41.011Z,96.30
2022-11-18T06:20:44.911Z,95.25
2022-11-18T06:23:50.358Z,95.96
2022-11-18T06:26:54.802Z,95.50
2022-11-18T06:29:58.541Z,94.27
2022-11-18T06:33:02.264Z,96.78
2022-11-18T06:36:06.332Z,97.29
2022-11-18T06:39:11.581Z,96.88
2022-11-18T06:42:35.705Z,96.78
2022-11-18T06:45:39.563Z,94.92
2022-11-18T06:48:43.252Z,96.82
2022-11-18T06:51:46.994Z,94.58
2022-11-18T06:54:52.082Z,93.89
2022-11-18T06:57:57.822Z,92.87
2022-11-18T07:01:10.962Z,94.38
2022-11-18T07:04:14.684Z,94.56
2022-11-18T07:07:18.426Z,92.87
2022-11-18T07:10:23.694Z,93.34
2022-11-18T07:13:27.412Z,92.80
2022-11-18T07:16:31.090Z,92.32
2022-11-18T07:19:36.104Z,91.31
2022-11-18T07:22:39.938Z,90.83
2022-11-18T07:25:48.262Z,91.44
2022-11-18T07:28:52.751Z,91.37
2022-11-18T07:31:56.711Z,91.16
2022-11-18T07:35:00.714Z,90.40
2022-11-18T07:38:04.753Z,92.02
2022-11-18T07:41:12.322Z,92.46
2022-11-18T07:44:17.801Z,91.60
2022-11-18T07:47:22.006Z,94.19
2022-11-18T07:50:26.061Z,94.13
2022-11-18T07:53:32.391Z,94.54
2022-11-18T07:56:43.013Z,95.96
2022-11-18T07:59:49.839Z,93.31
2022-11-18T08:02:54.080Z,95.05
2022-11-18T08:06:01.310Z,92.81
2022-11-18T08:09:09.113Z,93.23
2022-11-18T08:12:14.701Z,91.24
2022-11-18T08:15:22.041Z,90.16
2022-11-18T08:18:27.111Z,90.41
2022-11-18T08:21:31.271Z,91.59
2022-11-18T08:24:35.031Z,92.26
2022-11-18T08:27:40.255Z,92.01
2022-11-18T08:30:44.153Z,91.77
2022-11-18T08:33:48.442Z,91.64
2022-11-18T08:36:54.327Z,91.51
2022-11-18T08:40:01.921Z,90.89
2022-11-18T08:43:07.790Z,91.02
2022-11-18T08:46:12.131Z,91.81
2022-11-18T08:49:17.081Z,90.14
2022-11-18T08:52:21.780Z,89.01
2022-11-18T08:55:26.205Z,88.93
2022-11-18T08:58:45.361Z,89.74
2022-11-18T09:01:50.130Z,90.48
2022-11-18T09:04:54.911Z,89.97
2022-11-18T09:07:59.820Z,90.33
2022-11-18T09:11:10.131Z,90.96
2022-11-18T09:15:11.668Z,91.13
2022-11-18T09:17:45.150Z,90.98
2022-11-18T09:21:06.981Z,90.23
2022-11-18T09:24:18.107Z,89.06
2022-11-18T09:27:24.869Z,94.24
2022-11-18T09:30:33.172Z,94.06
2022-11-18T09:33:39.861Z,94.34
2022-11-18T09:36:43.956Z,92.35
2022-11-18T09:39:48.314Z,92.37
2022-11-18T09:43:06.661Z,92.10
2022-11-18T09:46:24.831Z,94.06
2022-11-18T09:49:36.613Z,95.19
2022-11-18T09:52:46.601Z,95.68
2022-11-18T09:55:52.230Z,95.50
2022-11-18T09:58:57.291Z,94.29
2022-11-18T10:02:27.911Z,95.71
2022-11-18T10:05:34.040Z,94.71
2022-11-18T10:08:44.763Z,96.24
2022-11-18T10:12:04.295Z,95.16
2022-11-18T10:15:22.020Z,98.54
2022-11-18T10:18:58.423Z,97.85
2022-11-18T10:22:11.757Z,97.13
2022-11-18T10:25:19.931Z,95.08
2022-11-18T10:28:25.991Z,95.21
2022-11-18T10:31:29.669Z,95.81
2022-11-18T10:34:36.571Z,96.24
2022-11-18T10:38:06.880Z,98.71
2022-11-18T10:41:06.880Z,100.00
2022-11-18T10:44:32.290Z,99.79
2022-11-18T10:47:36.059Z,98.63
2022-11-18T10:50:43.491Z,97.13
2022-11-18T10:53:47.569Z,98.18
2022-11-18T10:56:58.092Z,98.36
2022-11-18T11:00:02.237Z,97.26
2022-11-18T11:03:25.005Z,100.00
2022-11-18T11:06:37.629Z,99.64
2022-11-18T11:09:41.304Z,98.11
2022-11-18T11:12:50.430Z,98.95
2022-11-18T11:15:57.352Z,98.26
2022-11-18T11:19:03.820Z,99.09
2022-11-18T11:22:13.092Z,99.20
2022-11-18T11:25:19.551Z,98.04
2022-11-18T11:28:31.209Z,97.20
2022-11-18T11:31:46.519Z,96.43
2022-11-18T11:35:00.113Z,96.49
2022-11-18T11:38:14.669Z,96.19
2022-11-18T11:41:24.209Z,94.75
2022-11-18T11:44:41.649Z,94.00
2022-11-18T11:47:57.433Z,92.76
2022-11-18T11:51:06.909Z,92.13
2022-11-18T11:54:46.440Z,92.00
2022-11-18T11:58:03.419Z,91.45
2022-11-18T12:01:19.140Z,92.24
2022-11-18T12:04:34.739Z,92.48
2022-11-18T12:07:47.438Z,93.38
2022-11-18T12:11:02.123Z,93.46
2022-11-18T12:14:14.383Z,94.32
2022-11-18T12:17:26.379Z,91.02
2022-11-18T12:20:48.240Z,90.44
2022-11-18T12:24:31.362Z,89.87
2022-11-18T12:28:03.610Z,90.71
2022-11-18T12:31:43.757Z,92.77
2022-11-18T12:34:47.464Z,91.24
2022-11-18T12:38:02.710Z,91.73
2022-11-18T12:42:04.613Z,91.54
2022-11-18T12:45:41.597Z,91.87
2022-11-18T12:48:46.751Z,93.13
2022-11-18T12:51:51.249Z,92.15
2022-11-18T12:54:55.325Z,91.78
2022-11-18T12:57:59.400Z,93.12
2022-11-18T13:01:08.643Z,93.27
2022-11-18T13:04:17.960Z,92.96
2022-11-18T13:07:39.456Z,92.07
2022-11-18T13:10:54.683Z,92.15
2022-11-18T13:14:17.250Z,92.33
2022-11-18T13:17:54.003Z,94.66
2022-11-18T13:21:21.050Z,93.93
2022-11-18T13:24:24.140Z,95.90
2022-11-18T13:27:41.060Z,95.50
2022-11-18T13:30:52.591Z,95.42
2022-11-18T13:33:56.630Z,94.38
2022-11-18T13:37:02.420Z,95.46
2022-11-18T13:40:18.001Z,93.64
2022-11-18T13:43:27.431Z,93.91
2022-11-18T13:46:31.212Z,93.08
2022-11-18T13:49:50.090Z,92.86
2022-11-18T13:53:16.302Z,93.48
2022-11-18T13:56:24.731Z,93.59
2022-11-18T13:59:29.424Z,94.26
2022-11-18T14:02:34.221Z,94.00
2022-11-18T14:05:37.950Z,93.94
2022-11-18T14:08:43.171Z,93.18
2022-11-18T14:11:59.560Z,94.60
2022-11-18T14:15:27.300Z,94.81
2022-11-18T14:18:34.426Z,94.45
2022-11-18T14:21:39.640Z,95.53
2022-11-18T14:24:45.721Z,95.52
2022-11-18T14:27:52.803Z,94.67
2022-11-18T14:31:04.060Z,94.57
2022-11-18T14:34:19.750Z,95.30
2022-11-18T14:37:23.510Z,99.40
2022-11-18T14:40:28.770Z,99.36
2022-11-18T14:43:32.521Z,100.00
2022-11-18T14:46:39.368Z,99.38
2022-11-18T14:49:43.201Z,99.51
2022-11-18T14:52:47.098Z,98.81
2022-11-18T14:55:53.920Z,100.00
2022-11-18T14:58:57.581Z,99.75
2022-11-18T15:02:01.457Z,100.00
2022-11-18T15:05:05.290Z,100.00
2022-11-18T15:08:09.498Z,99.56
2022-11-18T15:11:15.071Z,98.73
2022-11-18T15:14:19.964Z,98.13
2022-11-18T15:17:24.087Z,97.57
2022-11-18T15:20:27.921Z,99.54
2022-11-18T15:23:32.350Z,100.00
2022-11-18T15:26:42.120Z,99.65
2022-11-18T15:29:48.202Z,98.93
2022-11-18T15:32:51.920Z,100.00
2022-11-18T15:35:55.701Z,100.00
2022-11-18T15:38:59.710Z,99.49
2022-11-18T15:42:04.940Z,99.96
2022-11-18T15:45:09.233Z,100.00
2022-11-18T15:48:12.949Z,99.70
2022-11-18T15:51:16.704Z,99.78
2022-11-18T15:54:20.878Z,98.90
2022-11-18T15:57:26.311Z,98.00
2022-11-18T16:00:30.080Z,97.39
2022-11-18T16:03:35.356Z,98.12
2022-11-18T16:06:39.289Z,98.64
2022-11-18T16:10:01.641Z,98.45
2022-11-18T16:13:06.731Z,100.00
2022-11-18T16:16:18.885Z,99.29
2022-11-18T16:19:25.111Z,99.63
2022-11-18T16:22:28.914Z,99.43
2022-11-18T16:25:32.541Z,99.84
2022-11-18T16:28:37.780Z,100.00
2022-11-18T16:31:41.620Z,100.00
2022-11-18T16:34:45.351Z,100.00
2022-11-18T16:37:49.129Z,100.00
2022-11-18T16:40:57.297Z,100.00
2022-11-18T16:44:04.701Z,100.00
2022-11-18T16:47:14.376Z,100.00
2022-11-18T16:50:19.400Z,100.00
2022-11-18T16:53:23.030Z,100.00
2022-11-18T16:56:29.000Z,100.00
2022-11-18T16:59:34.329Z,100.00
2022-11-18T17:02:38.076Z,100.00
2022-11-18T17:05:41.951Z,100.00
2022-11-18T17:08:45.689Z,100.00
2022-11-18T17:11:50.101Z,100.00
2022-11-18T17:14:55.171Z,99.35
2022-11-18T17:17:58.869Z,98.77
2022-11-18T17:21:07.219Z,100.00
2022-11-18T17:24:12.361Z,100.00
2022-11-18T17:27:16.079Z,99.11
2022-11-18T17:30:21.590Z,99.67
2022-11-18T17:33:25.370Z,99.69
2022-11-18T17:36:29.789Z,100.00
2022-11-18T17:39:33.761Z,99.42
2022-11-18T17:42:37.510Z,100.00
2022-11-18T17:45:43.600Z,100.00
2022-11-18T17:48:47.320Z,100.00
2022-11-18T17:51:52.440Z,99.28
2022-11-18T17:54:56.183Z,99.12
2022-11-18T17:57:59.960Z,99.93
2022-11-18T18:01:10.157Z,100.00
2022-11-18T18:04:14.881Z,100.00
2022-11-18T18:07:18.810Z,100.00
2022-11-18T18:10:22.630Z,100.00
2022-11-18T18:13:43.656Z,100.00
2022-11-18T18:16:50.209Z,98.79
2022-11-18T18:19:53.939Z,100.00
2022-11-18T18:22:57.900Z,100.00
2022-11-18T18:26:03.290Z,99.95
2022-11-18T18:29:07.162Z,99.03
2022-11-18T18:32:12.360Z,98.05
2022-11-18T18:35:16.119Z,97.80
2022-11-18T18:38:20.109Z,99.43
2022-11-18T18:41:24.609Z,100.00
2022-11-18T18:44:48.201Z,98.84
2022-11-18T18:47:52.690Z,99.03
2022-11-18T18:51:05.460Z,99.35
2022-11-18T18:54:12.620Z,100.00
2022-11-18T18:57:16.260Z,100.00
2022-11-18T19:00:20.439Z,98.52
2022-11-18T19:03:25.581Z,99.24
2022-11-18T19:09:55.958Z,100.00
2022-11-18T19:13:00.028Z,99.05
2022-11-18T19:16:07.267Z,99.77
2022-11-18T19:19:15.410Z,98.76
2022-11-18T19:22:19.139Z,99.63
2022-11-18T19:25:23.139Z,100.00
2022-11-18T19:28:26.950Z,100.00
2022-11-18T19:31:30.719Z,100.00
2022-11-18T19:34:35.958Z,100.00
2022-11-18T19:37:39.709Z,100.00
2022-11-18T19:40:43.539Z,100.00
2022-11-18T19:43:47.319Z,100.00
2022-11-18T19:46:50.989Z,100.00
2022-11-18T19:49:56.128Z,100.00
2022-11-18T19:53:19.888Z,100.00
2022-11-18T19:56:23.709Z,100.00
2022-11-18T19:59:27.558Z,100.00
2022-11-18T20:02:31.218Z,100.00
2022-11-18T20:05:56.108Z,100.00
2022-11-18T20:08:59.967Z,100.00
2022-11-18T20:12:03.787Z,100.00
2022-11-18T20:15:08.494Z,100.00
2022-11-18T20:18:12.678Z,100.00
2022-11-18T20:21:21.127Z,100.00
2022-11-18T20:24:24.972Z,100.00
2022-11-18T20:27:28.679Z,100.00
2022-11-18T20:30:32.458Z,100.00
2022-11-18T20:33:36.967Z,100.00
2022-11-18T20:36:42.620Z,100.00
2022-11-18T20:39:46.377Z,100.00
2022-11-18T20:43:07.528Z,100.00
2022-11-18T20:46:15.916Z,100.00
2022-11-18T20:49:23.648Z,100.00
2022-11-18T20:52:28.868Z,100.00
2022-11-18T20:55:32.908Z,100.00
2022-11-18T20:58:36.660Z,100.00
2022-11-18T21:01:40.547Z,100.00
2022-11-18T21:04:44.398Z,100.00
2022-11-18T21:07:50.849Z,100.00
2022-11-18T21:10:54.600Z,100.00
2022-11-18T21:14:21.600Z,100.00
2022-11-18T21:17:27.411Z,100.00
2022-11-18T21:20:48.660Z,100.00
2022-11-18T21:23:56.631Z,100.00
2022-11-18T21:27:02.071Z,100.00
2022-11-18T21:30:06.702Z,100.00
2022-11-18T21:33:10.441Z,100.00
2022-11-18T21:36:14.091Z,100.00
2022-11-18T21:39:19.591Z,100.00
2022-11-18T21:42:23.571Z,100.00
2022-11-18T21:45:27.303Z,100.00
2022-11-18T21:48:31.441Z,100.00
2022-11-18T21:51:36.170Z,100.00
2022-11-18T21:54:41.320Z,100.00
2022-11-18T21:57:45.001Z,100.00
2022-11-18T22:00:48.823Z,100.00
2022-11-18T22:03:55.702Z,100.00
2022-11-18T22:06:59.755Z,100.00
2022-11-18T22:10:05.320Z,100.00
2022-11-18T22:13:09.030Z,100.00
2022-11-18T22:16:14.901Z,100.00
2022-11-18T22:19:18.730Z,100.00
2022-11-18T22:22:22.619Z,100.00
2022-11-18T22:25:27.736Z,100.00
2022-11-18T22:28:31.944Z,100.00
2022-11-18T22:31:35.698Z,100.00
2022-11-18T22:34:39.397Z,100.00
2022-11-18T22:37:43.166Z,100.00
2022-11-18T22:40:48.448Z,100.00
2022-11-18T22:43:51.167Z,100.00
2022-11-18T22:46:54.846Z,100.00
2022-11-18T22:49:58.578Z,100.00
2022-11-18T22:53:02.411Z,100.00
2022-11-18T22:56:09.477Z,100.00
2022-11-18T22:59:13.466Z,100.00
2022-11-18T23:02:17.188Z,100.00
2022-11-18T23:05:20.897Z,100.00
2022-11-18T23:08:25.956Z,100.00
2022-11-18T23:11:49.884Z,100.00
2022-11-18T23:14:53.783Z,100.00
2022-11-18T23:17:57.454Z,100.00
2022-11-18T23:21:02.027Z,100.00
2022-11-18T23:24:06.953Z,100.00
2022-11-18T23:27:12.172Z,100.00
2022-11-18T23:30:16.011Z,100.00
2022-11-18T23:33:19.782Z,100.00
2022-11-18T23:36:23.745Z,100.00
2022-11-18T23:39:27.724Z,100.00
2022-11-18T23:42:32.866Z,100.00
2022-11-18T23:45:36.622Z,100.00
2022-11-18T23:48:42.284Z,100.00
2022-11-18T23:51:46.093Z,100.00
2022-11-18T23:54:52.181Z,100.00
2022-11-18T23:57:57.165Z,100.00
